Time;durP1;ratioP1;P1;durP2;ratioP2;P2;SDS_P1;SDS_P2;PMS_P1;PMS_P2;Temp;Humidity;BMP_temperature;BMP_pressure;BME280_temperature;BME280_humidity;BME280_pressure;Samples;Min_cycle;Max_cycle;Signal;HPM_P1;HPM_P2
2022/07/09 00:00:10;;;;;;;2.27;1.70;;;15.00;98.00;;;;;;5032438;28;20486;-71
2022/07/09 00:02:37;;;;;;;2.60;1.60;;;15.10;98.00;;;;;;5032460;28;20459;-70
2022/07/09 00:05:05;;;;;;;5.43;2.00;;;15.10;98.00;;;;;;5032285;28;20465;-69
2022/07/09 00:07:35;;;;;;;2.57;1.50;;;15.10;98.00;;;;;;5032327;28;20469;-70
2022/07/09 00:10:02;;;;;;;1.90;1.37;;;15.00;98.00;;;;;;5032234;28;20562;-70
2022/07/09 00:12:30;;;;;;;1.50;1.40;;;14.90;98.00;;;;;;5032075;28;20458;-70
2022/07/09 00:14:57;;;;;;;1.90;1.30;;;14.80;98.00;;;;;;5032456;28;20463;-70
2022/07/09 00:17:29;;;;;;;2.00;1.50;;;14.70;98.00;;;;;;5032164;28;20977;-70
2022/07/09 00:19:57;;;;;;;3.60;1.90;;;14.80;98.00;;;;;;5032453;28;20486;-70
2022/07/09 00:22:24;;;;;;;2.03;1.77;;;15.00;98.00;;;;;;5032297;28;20476;-70
2022/07/09 00:24:53;;;;;;;2.37;1.50;;;15.00;98.00;;;;;;5031994;28;20971;-70
2022/07/09 00:27:20;;;;;;;2.33;1.37;;;14.90;98.00;;;;;;5031989;28;20487;-71
2022/07/09 00:29:50;;;;;;;2.30;1.70;;;14.90;98.00;;;;;;5032845;28;20458;-70
2022/07/09 00:32:18;;;;;;;3.10;1.73;;;14.80;98.00;;;;;;5032375;28;20881;-70
2022/07/09 00:34:45;;;;;;;3.80;2.20;;;14.60;98.00;;;;;;5015173;28;20458;-70
2022/07/09 00:37:13;;;;;;;2.17;1.60;;;14.70;98.00;;;;;;5032249;28;20480;-70
2022/07/09 00:39:42;;;;;;;9.30;1.83;;;14.70;98.00;;;;;;5032066;28;20482;-70
2022/07/09 00:42:13;;;;;;;2.07;1.73;;;14.70;98.00;;;;;;5032426;28;20462;-70
2022/07/09 00:44:40;;;;;;;3.50;1.90;;;14.70;98.00;;;;;;5031797;28;20498;-70
2022/07/09 00:47:08;;;;;;;2.70;1.47;;;14.60;98.00;;;;;;5032081;28;20454;-70
2022/07/09 00:49:39;;;;;;;1.70;1.23;;;14.60;98.00;;;;;;5032060;28;20465;-70
2022/07/09 00:52:13;;;;;;;1.90;1.70;;;14.50;98.00;;;;;;5032373;28;20470;-70
2022/07/09 00:54:41;;;;;;;2.13;1.30;;;14.50;98.00;;;;;;5032277;28;20463;-70
2022/07/09 00:57:14;;;;;;;2.20;1.40;;;14.40;98.00;;;;;;5032208;28;20461;-70
2022/07/09 00:59:42;;;;;;;1.50;1.37;;;14.20;98.00;;;;;;5032256;28;20490;-70
2022/07/09 01:02:10;;;;;;;2.53;1.40;;;14.10;98.00;;;;;;5031923;28;20468;-70
2022/07/09 01:04:39;;;;;;;1.50;1.30;;;14.20;98.00;;;;;;5014461;28;20458;-70
2022/07/09 01:07:07;;;;;;;2.60;1.67;;;14.10;98.00;;;;;;5033493;28;20461;-70
2022/07/09 01:09:34;;;;;;;3.83;2.23;;;14.00;98.00;;;;;;5034883;28;20961;-71
2022/07/09 01:12:02;;;;;;;1.93;1.60;;;14.10;98.00;;;;;;5035602;28;20553;-70
2022/07/09 01:14:30;;;;;;;1.50;1.23;;;14.00;98.00;;;;;;5035770;28;20449;-70
2022/07/09 01:16:59;;;;;;;1.93;1.50;;;14.10;98.00;;;;;;5035776;28;20796;-70
2022/07/09 01:19:27;;;;;;;2.17;1.40;;;14.20;98.00;;;;;;5035478;28;20525;-71
2022/07/09 01:22:02;;;;;;;2.10;1.57;;;14.30;98.00;;;;;;5035686;28;20549;-71
2022/07/09 01:24:30;;;;;;;1.90;1.63;;;14.20;98.00;;;;;;5035498;28;20473;-71
2022/07/09 01:26:57;;;;;;;3.10;1.53;;;14.00;98.00;;;;;;5035522;28;20511;-70
2022/07/09 01:29:25;;;;;;;2.33;1.80;;;13.90;98.00;;;;;;5035050;28;20476;-70
2022/07/09 01:31:53;;;;;;;2.33;1.67;;;13.90;98.00;;;;;;5035167;28;20466;-70
2022/07/09 01:34:20;;;;;;;1.87;1.50;;;13.80;98.00;;;;;;5017628;28;20456;-71
2022/07/09 01:36:47;;;;;;;2.50;1.67;;;13.70;98.00;;;;;;5035143;28;20457;-70
2022/07/09 01:39:16;;;;;;;2.73;1.90;;;13.70;98.00;;;;;;5034947;28;20458;-70
2022/07/09 01:41:43;;;;;;;3.13;1.90;;;13.90;98.00;;;;;;5034887;28;20494;-70
2022/07/09 01:44:10;;;;;;;2.03;1.57;;;13.90;98.00;;;;;;5035009;28;20979;-70
2022/07/09 01:46:37;;;;;;;2.53;1.70;;;13.90;98.00;;;;;;5034979;28;20895;-70
2022/07/09 01:49:05;;;;;;;2.37;1.50;;;13.90;98.00;;;;;;5034983;28;20549;-70
2022/07/09 01:51:35;;;;;;;2.10;1.70;;;14.00;98.00;;;;;;5035042;28;20547;-70
2022/07/09 01:54:03;;;;;;;2.30;1.57;;;13.90;98.00;;;;;;5034982;28;20528;-70
2022/07/09 01:56:32;;;;;;;2.13;1.40;;;13.80;98.00;;;;;;5016615;28;20465;-71
2022/07/09 01:59:00;;;;;;;1.80;1.67;;;13.70;98.00;;;;;;5034839;28;20810;-70
2022/07/09 02:01:28;;;;;;;2.10;1.67;;;13.60;98.00;;;;;;5034634;28;20496;-70
2022/07/09 02:03:55;;;;;;;1.40;1.33;;;13.50;98.00;;;;;;5034681;28;20459;-70
2022/07/09 02:06:22;;;;;;;4.00;1.43;;;13.50;98.00;;;;;;5034523;28;20464;-70
2022/07/09 02:08:50;;;;;;;2.27;1.63;;;13.40;98.00;;;;;;5034482;28;20450;-70
2022/07/09 02:11:17;;;;;;;1.93;1.33;;;13.40;98.00;;;;;;5034374;28;20476;-70
2022/07/09 02:13:46;;;;;;;2.07;1.70;;;13.30;98.00;;;;;;5016920;28;20471;-70
2022/07/09 02:16:13;;;;;;;2.53;1.63;;;13.30;98.00;;;;;;5034231;28;20796;-70
2022/07/09 02:18:40;;;;;;;1.93;1.30;;;13.30;98.00;;;;;;5016542;28;20461;-70
2022/07/09 02:21:09;;;;;;;3.27;1.70;;;13.40;98.00;;;;;;5034242;28;20496;-70
2022/07/09 02:23:37;;;;;;;2.80;1.60;;;13.40;98.00;;;;;;5034061;28;20466;-70
2022/07/09 02:26:05;;;;;;;2.87;1.90;;;13.40;98.00;;;;;;5034657;28;20495;-70
2022/07/09 02:28:32;;;;;;;1.97;1.53;;;13.30;98.00;;;;;;5034105;28;20523;-71
2022/07/09 02:31:01;;;;;;;2.80;1.87;;;13.50;98.00;;;;;;5034333;28;20551;-70
2022/07/09 02:33:31;;;;;;;1.70;1.43;;;13.50;98.00;;;;;;5034166;28;20455;-69
2022/07/09 02:35:58;;;;;;;1.67;1.40;;;13.40;98.00;;;;;;5017061;28;20470;-70
2022/07/09 02:38:25;;;;;;;1.67;1.40;;;13.30;98.00;;;;;;5016475;28;20466;-70
2022/07/09 02:40:52;;;;;;;2.27;1.30;;;13.20;98.00;;;;;;5034181;28;20500;-70
2022/07/09 02:43:19;;;;;;;3.10;1.60;;;13.30;98.00;;;;;;5033681;28;20462;-70
2022/07/09 02:45:47;;;;;;;2.67;1.73;;;13.30;98.00;;;;;;5033569;28;20830;-69
2022/07/09 02:48:15;;;;;;;1.50;1.40;;;13.20;98.00;;;;;;5033768;28;20496;-70
2022/07/09 02:50:43;;;;;;;3.00;1.53;;;13.10;98.00;;;;;;5034422;28;20462;-70
2022/07/09 02:53:11;;;;;;;1.37;1.17;;;13.00;98.00;;;;;;5034052;28;20455;-70
2022/07/09 02:55:38;;;;;;;1.40;1.33;;;12.90;98.00;;;;;;5033843;28;20464;-70
2022/07/09 02:58:05;;;;;;;2.43;1.87;;;12.90;98.00;;;;;;5033782;28;20479;-69
2022/07/09 03:00:33;;;;;;;2.03;1.43;;;13.00;98.00;;;;;;5033970;28;20486;-69
2022/07/09 03:03:00;;;;;;;1.77;1.20;;;13.00;98.00;;;;;;5033712;28;20467;-70
2022/07/09 03:05:29;;;;;;;2.17;1.70;;;13.20;98.00;;;;;;5033229;28;20500;-70
2022/07/09 03:07:57;;;;;;;2.40;1.43;;;13.10;98.00;;;;;;5033090;28;20552;-69
2022/07/09 03:10:24;;;;;;;2.30;1.43;;;12.90;98.00;;;;;;5032719;28;20485;-70
2022/07/09 03:12:52;;;;;;;4.20;2.43;;;13.10;98.00;;;;;;5032812;28;20476;-70
2022/07/09 03:15:19;;;;;;;2.13;1.93;;;13.00;98.00;;;;;;5033176;28;20908;-69
2022/07/09 03:17:50;;;;;;;2.90;1.30;;;12.80;98.00;;;;;;5032678;28;20448;-71
2022/07/09 03:20:17;;;;;;;1.70;1.40;;;12.70;98.00;;;;;;5015580;28;20484;-69
2022/07/09 03:22:46;;;;;;;2.90;1.77;;;12.80;98.00;;;;;;5034000;28;20496;-70
2022/07/09 03:25:13;;;;;;;3.27;2.10;;;12.60;98.00;;;;;;5033835;28;20539;-70
2022/07/09 03:27:40;;;;;;;1.77;1.30;;;12.60;98.00;;;;;;5033045;28;20465;-70
2022/07/09 03:30:08;;;;;;;1.30;1.20;;;12.50;98.00;;;;;;5031858;28;20464;-70
2022/07/09 03:32:36;;;;;;;2.00;1.60;;;12.60;98.00;;;;;;5032779;28;20461;-70
2022/07/09 03:35:03;;;;;;;1.93;1.60;;;12.60;98.00;;;;;;5015393;28;20453;-70
2022/07/09 03:37:30;;;;;;;2.57;1.70;;;12.60;98.00;;;;;;5032277;28;20460;-69
2022/07/09 03:40:01;;;;;;;3.00;1.57;;;12.70;98.00;;;;;;5032609;28;20561;-70
2022/07/09 03:42:28;;;;;;;3.57;1.33;;;12.80;98.00;;;;;;5032362;28;20962;-70
2022/07/09 03:44:55;;;;;;;1.80;1.20;;;12.80;98.00;;;;;;5015207;28;20465;-70
2022/07/09 03:47:23;;;;;;;2.40;1.30;;;12.80;98.00;;;;;;5032531;28;20938;-70
2022/07/09 03:49:50;;;;;;;1.97;1.50;;;12.80;98.00;;;;;;5032382;28;20468;-70
2022/07/09 03:52:17;;;;;;;1.40;1.30;;;12.80;98.00;;;;;;5032693;28;20501;-70
2022/07/09 03:54:44;;;;;;;1.30;1.20;;;12.80;98.00;;;;;;5032554;28;20826;-70
2022/07/09 04:00:08;;;;;;;1.70;1.30;;;12.70;98.00;;;;;;5032298;28;20468;-71
2022/07/09 04:02:36;;;;;;;4.07;1.90;;;12.60;98.00;;;;;;5032454;28;20471;-70
2022/07/09 04:05:04;;;;;;;1.37;1.23;;;12.50;98.00;;;;;;5032365;28;20476;-70
2022/07/09 04:07:31;;;;;;;3.20;1.73;;;12.50;98.00;;;;;;5032721;28;20510;-71
2022/07/09 04:09:58;;;;;;;3.03;1.40;;;12.50;98.00;;;;;;5032752;28;20472;-71
2022/07/09 04:12:27;;;;;;;4.53;1.53;;;12.50;98.00;;;;;;5014757;28;20509;-70
2022/07/09 04:14:55;;;;;;;1.80;1.60;;;12.50;98.00;;;;;;5032245;28;20459;-71
2022/07/09 04:17:22;;;;;;;1.63;1.40;;;12.50;98.00;;;;;;5014939;28;20457;-71
2022/07/09 04:19:50;;;;;;;2.30;1.63;;;12.70;98.00;;;;;;5032032;28;20461;-72
2022/07/09 04:22:18;;;;;;;2.50;1.40;;;12.80;98.00;;;;;;5030937;28;20487;-72
2022/07/09 04:24:46;;;;;;;1.63;1.30;;;12.80;98.00;;;;;;5031507;28;20464;-72
2022/07/09 04:27:13;;;;;;;2.63;1.60;;;12.80;98.00;;;;;;5031262;28;20537;-71
2022/07/09 04:29:42;;;;;;;1.77;1.47;;;12.90;98.00;;;;;;5013800;28;20803;-71
2022/07/09 04:32:12;;;;;;;1.70;1.40;;;12.80;98.00;;;;;;5031205;28;20469;-72
2022/07/09 04:34:39;;;;;;;1.80;1.50;;;13.00;98.00;;;;;;5031719;28;20977;-72
2022/07/09 04:37:07;;;;;;;4.47;1.73;;;13.10;98.00;;;;;;5032166;28;20506;-72
2022/07/09 04:39:34;;;;;;;1.87;1.40;;;13.30;98.00;;;;;;5032269;28;20465;-71
2022/07/09 04:42:03;;;;;;;2.33;1.40;;;13.40;98.00;;;;;;5035862;28;20487;-72
2022/07/09 04:44:32;;;;;;;1.57;1.40;;;13.50;98.00;;;;;;5036993;28;20463;-72
2022/07/09 04:47:01;;;;;;;2.73;1.70;;;13.50;98.00;;;;;;5036725;28;20455;-71
2022/07/09 04:49:28;;;;;;;2.27;1.60;;;13.40;98.00;;;;;;5036580;28;20545;-72
2022/07/09 04:51:55;;;;;;;3.57;1.77;;;13.50;98.00;;;;;;5036589;28;20476;-71
2022/07/09 04:54:24;;;;;;;1.70;1.33;;;13.70;98.00;;;;;;5036481;28;20456;-70
2022/07/09 04:56:51;;;;;;;5.77;1.80;;;13.80;98.00;;;;;;5036598;28;20542;-71
2022/07/09 04:59:20;;;;;;;1.70;1.60;;;13.90;98.00;;;;;;5018593;28;20499;-71
2022/07/09 05:01:48;;;;;;;2.00;1.57;;;13.90;98.00;;;;;;5035169;28;20555;-71
2022/07/09 05:04:17;;;;;;;1.80;1.53;;;13.80;98.00;;;;;;5035291;28;20465;-71
2022/07/09 05:06:44;;;;;;;2.03;1.53;;;13.80;98.00;;;;;;5035705;28;20499;-71
2022/07/09 05:09:11;;;;;;;2.33;1.70;;;13.70;98.00;;;;;;5035397;28;20462;-71
2022/07/09 05:11:38;;;;;;;2.30;1.43;;;13.80;98.00;;;;;;5035063;28;20466;-71
2022/07/09 05:14:06;;;;;;;1.50;1.33;;;13.90;98.00;;;;;;5035060;28;20514;-71
2022/07/09 05:16:34;;;;;;;2.13;2.00;;;14.10;98.00;;;;;;5035732;28;20451;-72
2022/07/09 05:19:01;;;;;;;2.97;1.83;;;14.20;98.00;;;;;;5035272;28;20801;-71
2022/07/09 05:21:30;;;;;;;1.97;1.43;;;14.40;98.00;;;;;;5034707;28;20564;-72
2022/07/09 05:23:57;;;;;;;3.53;1.77;;;14.50;98.00;;;;;;5034929;28;20462;-72
2022/07/09 05:26:24;;;;;;;2.20;1.73;;;14.60;98.00;;;;;;5034907;28;20464;-71
2022/07/09 05:28:52;;;;;;;2.17;2.03;;;14.70;98.00;;;;;;5034710;28;20941;-72
2022/07/09 05:31:19;;;;;;;3.43;2.33;;;14.80;98.00;;;;;;5017250;28;20457;-72
2022/07/09 05:33:47;;;;;;;2.07;1.70;;;14.80;98.00;;;;;;5034603;28;20494;-71
2022/07/09 05:36:14;;;;;;;2.20;1.50;;;15.00;98.00;;;;;;5034617;28;20487;-71
2022/07/09 05:38:43;;;;;;;3.67;1.63;;;15.00;98.00;;;;;;5034652;28;20466;-72
2022/07/09 05:41:11;;;;;;;2.20;1.83;;;15.00;98.00;;;;;;5016907;28;20500;-71
2022/07/09 05:43:38;;;;;;;1.60;1.37;;;15.00;98.00;;;;;;5034512;28;20458;-71
2022/07/09 05:46:05;;;;;;;2.10;1.70;;;15.20;98.00;;;;;;5034690;28;20454;-71
2022/07/09 05:48:33;;;;;;;3.00;1.70;;;15.30;98.00;;;;;;5034515;28;20800;-71
2022/07/09 05:51:00;;;;;;;2.83;1.93;;;15.40;98.00;;;;;;5034400;28;20468;-71
2022/07/09 05:53:27;;;;;;;3.10;1.73;;;15.40;98.00;;;;;;5033759;28;20462;-71
2022/07/09 05:55:58;;;;;;;3.07;1.80;;;15.50;98.00;;;;;;5034902;28;20539;-71
2022/07/09 05:58:25;;;;;;;2.80;1.67;;;15.60;98.00;;;;;;5034519;28;20470;-71
2022/07/09 06:00:52;;;;;;;2.47;1.87;;;15.60;98.00;;;;;;5034415;28;20961;-71
2022/07/09 06:03:20;;;;;;;2.50;2.00;;;15.70;98.00;;;;;;5034396;28;20455;-70
2022/07/09 06:05:48;;;;;;;2.37;1.80;;;15.80;98.00;;;;;;5035649;28;20459;-80
2022/07/09 06:08:15;;;;;;;2.30;1.90;;;15.80;98.00;;;;;;5041548;28;20458;-80
2022/07/09 06:10:43;;;;;;;2.27;1.83;;;15.90;98.00;;;;;;5041533;28;20466;-79
2022/07/09 06:13:12;;;;;;;8.87;2.10;;;15.90;98.00;;;;;;5040893;28;20454;-80
2022/07/09 06:15:40;;;;;;;4.37;2.00;;;16.10;98.00;;;;;;5041385;28;20455;-80
2022/07/09 06:18:07;;;;;;;2.77;1.80;;;16.30;98.00;;;;;;5039423;28;20456;-79
2022/07/09 06:20:36;;;;;;;2.30;1.70;;;16.30;98.00;;;;;;5039373;28;20461;-79
2022/07/09 06:23:03;;;;;;;2.27;1.67;;;16.40;98.00;;;;;;5039341;28;20482;-80
2022/07/09 06:25:31;;;;;;;2.33;1.47;;;16.60;98.00;;;;;;5038988;28;20493;-79
2022/07/09 06:27:58;;;;;;;2.20;1.70;;;16.70;98.00;;;;;;5040756;28;20485;-79
2022/07/09 06:30:28;;;;;;;1.53;1.50;;;16.70;98.00;;;;;;5037762;28;20465;-80
2022/07/09 06:32:56;;;;;;;2.10;1.70;;;16.70;98.00;;;;;;5035884;28;20455;-80
2022/07/09 06:35:23;;;;;;;4.80;2.40;;;16.80;98.00;;;;;;5037367;28;20813;-80
2022/07/09 06:37:52;;;;;;;3.40;1.97;;;16.70;98.00;;;;;;5036305;28;20473;-79
2022/07/09 06:40:19;;;;;;;2.73;1.90;;;16.80;98.00;;;;;;5035649;28;20553;-80
2022/07/09 06:42:50;;;;;;;2.17;1.60;;;17.00;98.00;;;;;;5037997;28;20829;-80
2022/07/09 06:45:17;;;;;;;2.90;1.73;;;17.10;98.00;;;;;;5036475;28;20455;-80
2022/07/09 06:47:45;;;;;;;2.03;1.80;;;17.40;98.00;;;;;;5038029;28;20942;-79
2022/07/09 06:50:13;;;;;;;4.20;1.90;;;17.50;98.00;;;;;;5038579;28;20465;-80
2022/07/09 06:52:42;;;;;;;3.87;1.83;;;17.60;98.00;;;;;;5037677;28;20463;-79
2022/07/09 06:55:10;;;;;;;2.13;1.60;;;17.80;98.00;;;;;;5037866;28;20463;-80
2022/07/09 06:57:37;;;;;;;2.20;1.80;;;17.90;98.00;;;;;;5036480;28;20892;-79
2022/07/09 07:00:06;;;;;;;2.37;1.97;;;17.90;98.00;;;;;;5035702;28;20863;-78
2022/07/09 07:02:33;;;;;;;2.27;1.90;;;18.00;98.00;;;;;;5034408;28;20492;-79
2022/07/09 07:05:05;;;;;;;2.57;1.83;;;18.10;98.00;;;;;;5034033;28;20473;-79
2022/07/09 07:07:34;;;;;;;2.23;1.80;;;18.40;98.00;;;;;;5035480;28;20463;-79
2022/07/09 07:10:01;;;;;;;2.83;1.90;;;18.60;98.00;;;;;;5036424;28;20886;-79
2022/07/09 07:12:29;;;;;;;2.20;1.53;;;18.70;98.00;;;;;;5035608;28;20465;-81
2022/07/09 07:14:56;;;;;;;1.90;1.60;;;18.90;98.00;;;;;;5018372;28;20469;-78
2022/07/09 07:17:23;;;;;;;3.03;2.03;;;18.90;98.00;;;;;;5035916;28;20466;-78
2022/07/09 07:19:50;;;;;;;4.60;1.80;;;19.00;98.00;;;;;;5036540;28;20962;-78
2022/07/09 07:22:26;;;;;;;4.17;2.47;;;19.00;98.00;;;;;;5035130;28;20486;-80
2022/07/09 07:24:53;;;;;;;2.50;1.57;;;19.00;98.00;;;;;;5031043;28;20473;-78
2022/07/09 07:27:20;;;;;;;4.17;1.90;;;19.00;98.00;;;;;;5032816;28;20466;-78
2022/07/09 07:29:47;;;;;;;2.67;1.70;;;19.00;98.00;;;;;;5014712;28;20950;-79
2022/07/09 07:32:18;;;;;;;2.87;1.93;;;18.90;98.00;;;;;;5032577;28;20837;-80
2022/07/09 07:34:46;;;;;;;2.97;2.10;;;18.90;98.00;;;;;;5032176;28;20459;-68
2022/07/09 07:37:13;;;;;;;3.63;2.23;;;19.00;98.00;;;;;;5033632;28;20463;-78
2022/07/09 07:39:42;;;;;;;4.20;1.77;;;19.10;98.00;;;;;;5030272;28;20813;-75
2022/07/09 07:42:09;;;;;;;2.40;1.70;;;19.10;98.00;;;;;;5029989;28;20482;-76
2022/07/09 07:44:36;;;;;;;2.70;2.00;;;19.40;98.00;;;;;;5030470;28;20520;-78
2022/07/09 07:47:04;;;;;;;2.83;2.33;;;19.60;98.00;;;;;;5029511;28;20469;-76
2022/07/09 07:49:31;;;;;;;3.00;2.00;;;19.70;98.00;;;;;;5027185;28;20467;-75
2022/07/09 07:51:58;;;;;;;2.50;1.80;;;19.90;98.00;;;;;;5029699;28;21143;-75
2022/07/09 07:54:26;;;;;;;3.47;1.90;;;20.10;98.00;;;;;;5029811;28;20462;-76
2022/07/09 07:56:55;;;;;;;2.50;1.83;;;20.20;98.00;;;;;;5029672;28;20520;-76
2022/07/09 07:59:23;;;;;;;2.23;1.60;;;20.10;98.00;;;;;;5011648;28;20459;-77
2022/07/09 08:01:50;;;;;;;2.50;2.20;;;20.10;98.00;;;;;;5029733;28;20486;-76
2022/07/09 08:04:17;;;;;;;3.27;1.93;;;20.10;98.00;;;;;;5029703;28;20467;-76
2022/07/09 08:06:45;;;;;;;3.37;2.20;;;20.10;98.00;;;;;;5029594;28;20463;-76
2022/07/09 08:09:13;;;;;;;2.97;2.13;;;20.20;98.00;;;;;;5028955;28;20846;-76
2022/07/09 08:11:40;;;;;;;4.00;2.20;;;20.20;98.00;;;;;;5032170;28;20476;-76
2022/07/09 08:14:08;;;;;;;3.23;2.10;;;20.30;98.00;;;;;;5031284;28;20461;-76
2022/07/09 08:16:37;;;;;;;2.37;1.77;;;20.50;98.00;;;;;;5030285;28;20459;-76
2022/07/09 08:19:04;;;;;;;3.93;2.33;;;20.70;98.00;;;;;;5014067;28;20454;-76
2022/07/09 08:21:31;;;;;;;2.73;1.90;;;20.90;98.00;;;;;;5031290;28;20463;-76
2022/07/09 08:24:00;;;;;;;2.20;1.80;;;21.00;98.00;;;;;;5031169;28;20979;-76
2022/07/09 08:26:28;;;;;;;3.00;2.00;;;21.10;98.00;;;;;;5031378;28;20459;-77
2022/07/09 08:28:56;;;;;;;2.40;1.90;;;21.10;98.00;;;;;;5031253;28;20446;-77
2022/07/09 08:31:25;;;;;;;3.47;2.27;;;21.20;98.00;;;;;;5030987;28;20462;-77
2022/07/09 08:33:53;;;;;;;2.33;1.80;;;21.20;98.00;;;;;;5030911;28;20461;-76
2022/07/09 08:36:20;;;;;;;3.37;2.33;;;21.20;98.00;;;;;;5031094;28;20900;-76
2022/07/09 08:38:49;;;;;;;2.53;1.80;;;21.40;98.00;;;;;;5029929;28;20470;-76
2022/07/09 08:41:19;;;;;;;2.33;1.90;;;21.50;98.00;;;;;;5030964;28;20487;-78
2022/07/09 08:43:51;;;;;;;2.57;1.70;;;21.60;98.00;;;;;;5029748;28;20487;-78
2022/07/09 08:46:18;;;;;;;2.37;1.60;;;21.70;98.00;;;;;;5031127;28;20824;-76
2022/07/09 08:48:47;;;;;;;3.37;2.27;;;21.90;97.90;;;;;;5030821;28;20498;-76
2022/07/09 08:51:16;;;;;;;2.27;1.83;;;22.10;98.00;;;;;;5030786;28;20466;-76
2022/07/09 08:53:45;;;;;;;2.13;1.60;;;22.20;97.10;;;;;;5030776;28;20476;-76
2022/07/09 08:56:13;;;;;;;3.60;1.80;;;22.40;97.50;;;;;;5030801;28;20498;-76
2022/07/09 08:58:40;;;;;;;3.30;1.90;;;22.50;96.60;;;;;;5030983;28;20512;-76
2022/07/09 09:01:08;;;;;;;6.70;1.70;;;22.50;94.50;;;;;;5030933;28;20459;-77
2022/07/09 09:03:36;;;;;;;1.60;1.43;;;22.40;94.30;;;;;;5030596;28;20497;-76
2022/07/09 09:06:08;;;;;;;1.90;1.50;;;22.40;93.10;;;;;;5030763;28;20471;-76
2022/07/09 09:08:36;;;;;;;3.30;1.77;;;22.50;95.30;;;;;;5030686;28;20472;-78
2022/07/09 09:11:04;;;;;;;3.00;1.50;;;22.70;94.40;;;;;;5031019;28;20520;-76
2022/07/09 09:13:33;;;;;;;1.40;1.37;;;22.90;94.20;;;;;;5030876;28;20469;-73
2022/07/09 09:16:05;;;;;;;2.07;1.67;;;23.10;93.50;;;;;;5030789;28;20732;-70
2022/07/09 09:18:32;;;;;;;1.90;1.50;;;23.10;90.80;;;;;;5031024;28;20528;-75
2022/07/09 09:21:06;;;;;;;1.87;1.60;;;23.10;91.00;;;;;;5030517;28;20492;-75
2022/07/09 09:23:52;;;;;;;1.63;1.53;;;23.30;94.80;;;;;;5030459;28;20494;-75
2022/07/09 09:26:21;;;;;;;1.70;1.57;;;23.30;91.20;;;;;;5030041;28;20455;-75
2022/07/09 09:31:36;;;;;;;1.70;1.43;;;23.50;90.90;;;;;;5033867;28;20462;-75
2022/07/09 09:34:14;;;;;;;1.50;1.43;;;23.60;90.00;;;;;;5033895;28;20496;-75
2022/07/09 09:36:45;;;;;;;2.47;1.60;;;23.70;90.80;;;;;;5032963;28;20875;-75
2022/07/09 09:39:18;;;;;;;1.67;1.40;;;23.90;93.50;;;;;;5033581;28;20462;-76
2022/07/09 09:41:46;;;;;;;1.87;1.40;;;24.20;89.20;;;;;;5034041;28;20546;-74
2022/07/09 09:44:15;;;;;;;1.57;1.40;;;24.30;89.00;;;;;;5033845;28;20490;-75
2022/07/09 09:46:44;;;;;;;2.00;1.70;;;24.40;89.80;;;;;;5033888;28;20458;-75
2022/07/09 09:49:14;;;;;;;1.70;1.50;;;24.60;87.90;;;;;;5033579;28;20459;-74
2022/07/09 09:51:48;;;;;;;2.63;1.70;;;24.60;86.40;;;;;;5033690;28;20481;-74
2022/07/09 09:54:16;;;;;;;2.00;1.67;;;24.70;88.10;;;;;;5033559;28;20493;-74
2022/07/09 09:56:44;;;;;;;2.87;2.07;;;24.70;89.70;;;;;;5033653;28;20815;-74
2022/07/09 09:59:12;;;;;;;2.57;1.83;;;24.60;85.90;;;;;;5049584;28;20468;-76
2022/07/09 10:01:40;;;;;;;2.13;1.50;;;24.50;88.70;;;;;;5053606;28;20454;-74
2022/07/09 10:04:09;;;;;;;3.63;2.57;;;24.80;88.60;;;;;;5053477;28;20485;-75
2022/07/09 10:06:40;;;;;;;2.60;1.87;;;25.00;89.20;;;;;;5054153;28;20466;-74
2022/07/09 10:09:12;;;;;;;2.07;1.77;;;25.30;88.90;;;;;;5053562;28;20462;-75
2022/07/09 10:11:42;;;;;;;2.90;2.00;;;25.50;86.30;;;;;;5053743;28;20473;-74
2022/07/09 10:14:16;;;;;;;2.50;1.90;;;25.60;85.80;;;;;;5054242;28;20464;-73
2022/07/09 10:16:43;;;;;;;2.50;1.83;;;25.70;85.00;;;;;;5055186;28;20468;-74
2022/07/09 10:19:10;;;;;;;2.93;1.87;;;25.60;86.00;;;;;;5053746;28;20450;-73
2022/07/09 10:21:39;;;;;;;1.87;1.43;;;25.40;83.90;;;;;;5054115;28;20465;-74
2022/07/09 10:24:08;;;;;;;2.37;1.90;;;25.50;85.00;;;;;;5053772;28;20488;-71
2022/07/09 10:26:47;;;;;;;3.80;1.63;;;25.60;85.70;;;;;;5053974;28;20458;-74
2022/07/09 10:29:25;;;;;;;1.80;1.50;;;25.80;85.20;;;;;;5053335;28;20458;-72
2022/07/09 10:31:53;;;;;;;2.07;1.50;;;25.90;84.70;;;;;;5054017;28;20457;-73
2022/07/09 10:34:46;;;;;;;2.37;1.60;;;26.10;81.00;;;;;;5053604;28;20462;-73
2022/07/09 10:37:13;;;;;;;1.70;1.40;;;26.20;82.50;;;;;;5039168;28;20458;-74
2022/07/09 10:39:41;;;;;;;2.20;1.60;;;26.40;79.60;;;;;;5035667;28;20458;-75
2022/07/09 10:42:20;;;;;;;3.60;1.60;;;26.40;79.50;;;;;;5053508;28;20462;-74
2022/07/09 10:44:49;;;;;;;2.13;1.50;;;26.20;79.30;;;;;;5053473;28;20494;-75
2022/07/09 10:47:17;;;;;;;1.80;1.70;;;26.40;78.10;;;;;;5053429;28;20902;-75
2022/07/09 10:49:44;;;;;;;1.50;1.43;;;26.20;78.00;;;;;;5053481;28;20480;-75
2022/07/09 10:52:12;;;;;;;1.50;1.30;;;26.30;82.70;;;;;;5053377;28;20540;-75
2022/07/09 10:54:47;;;;;;;4.43;1.70;;;26.50;79.60;;;;;;5053122;28;20484;-74
2022/07/09 10:57:24;;;;;;;1.90;1.63;;;26.70;79.10;;;;;;5053070;28;20467;-73
2022/07/09 10:59:51;;;;;;;1.40;1.30;;;26.70;77.50;;;;;;5053416;28;20507;-73
2022/07/09 11:02:20;;;;;;;1.40;1.30;;;26.70;77.40;;;;;;5053321;28;20461;-75
2022/07/09 11:04:51;;;;;;;1.80;1.50;;;26.80;74.80;;;;;;5053176;28;20461;-73
2022/07/09 11:07:23;;;;;;;2.40;1.60;;;27.10;76.30;;;;;;5052966;28;20462;-74
2022/07/09 11:09:51;;;;;;;3.43;1.60;;;27.10;75.40;;;;;;5052802;28;20842;-63
2022/07/09 11:12:20;;;;;;;1.83;1.40;;;26.90;77.80;;;;;;5052745;28;20458;-68
2022/07/09 11:14:48;;;;;;;1.30;1.27;;;27.10;76.00;;;;;;5052819;28;20453;-75
2022/07/09 11:17:16;;;;;;;3.40;1.70;;;27.10;75.90;;;;;;5053101;28;20504;-76
2022/07/09 11:19:45;;;;;;;2.17;1.67;;;27.20;76.50;;;;;;5052662;28;20450;-66
2022/07/09 11:22:12;;;;;;;2.00;1.70;;;27.40;77.40;;;;;;5052630;28;21116;-73
2022/07/09 11:24:39;;;;;;;2.10;1.60;;;27.80;78.30;;;;;;5052818;28;20492;-68
2022/07/09 11:27:08;;;;;;;2.30;1.50;;;28.10;77.40;;;;;;5052450;28;20454;-65
2022/07/09 11:29:37;;;;;;;3.30;1.60;;;27.80;78.20;;;;;;5052218;28;20453;-65
2022/07/09 11:32:05;;;;;;;2.13;1.70;;;27.50;77.30;;;;;;5052497;28;20492;-67
2022/07/09 11:34:32;;;;;;;2.37;1.60;;;27.20;77.90;;;;;;5052304;28;20453;-65
2022/07/09 11:37:00;;;;;;;2.77;1.80;;;26.80;78.80;;;;;;5052546;28;20808;-66
2022/07/09 11:39:30;;;;;;;1.80;1.60;;;26.70;79.20;;;;;;5052111;28;20458;-65
2022/07/09 11:41:58;;;;;;;1.50;1.50;;;26.60;78.50;;;;;;5052366;28;20475;-65
2022/07/09 11:44:27;;;;;;;4.27;1.80;;;27.00;76.10;;;;;;5052015;28;20492;-66
2022/07/09 11:47:22;;;;;;;1.77;1.60;;;27.50;75.90;;;;;;5052332;28;20843;-66
2022/07/09 11:49:50;;;;;;;2.27;1.63;;;27.50;75.70;;;;;;5051443;28;20520;-66
2022/07/09 11:52:20;;;;;;;1.90;1.53;;;27.90;74.80;;;;;;5051979;28;20859;-66
2022/07/09 11:54:58;;;;;;;2.07;1.67;;;28.10;75.10;;;;;;5034654;28;20461;-66
2022/07/09 11:57:25;;;;;;;6.23;1.77;;;28.00;76.00;;;;;;5051988;28;20465;-66
2022/07/09 11:59:53;;;;;;;1.93;1.73;;;27.70;76.00;;;;;;5052073;28;20461;-67
2022/07/09 12:02:31;;;;;;;2.10;1.80;;;27.40;77.10;;;;;;5052385;28;20893;-76
2022/07/09 12:04:58;;;;;;;1.70;1.50;;;27.00;76.20;;;;;;5052050;28;20485;-77
2022/07/09 12:07:26;;;;;;;1.80;1.60;;;26.80;78.50;;;;;;5052345;28;20952;-76
2022/07/09 12:10:00;;;;;;;1.60;1.60;;;26.70;79.00;;;;;;5052303;28;20466;-77
2022/07/09 12:12:28;;;;;;;1.30;1.30;;;27.00;78.60;;;;;;5052311;28;20483;-76
2022/07/09 12:14:55;;;;;;;1.90;1.57;;;27.40;78.30;;;;;;5053073;28;20968;-75
2022/07/09 12:17:24;;;;;;;3.70;1.80;;;28.00;78.10;;;;;;5034558;28;20465;-76
2022/07/09 12:19:55;;;;;;;2.00;1.70;;;28.40;75.80;;;;;;5051916;28;20464;-69
2022/07/09 12:22:23;;;;;;;1.80;1.70;;;28.50;75.50;;;;;;5051968;28;20797;-66
2022/07/09 12:24:51;;;;;;;2.27;1.60;;;28.20;72.30;;;;;;5051642;28;20509;-66
2022/07/09 12:27:19;;;;;;;5.03;2.27;;;27.80;73.00;;;;;;5051822;28;20453;-67
2022/07/09 12:29:47;;;;;;;1.87;1.60;;;27.70;74.20;;;;;;5051620;28;20491;-67
2022/07/09 12:32:15;;;;;;;2.37;1.70;;;27.70;74.10;;;;;;5051545;28;20464;-66
2022/07/09 12:34:42;;;;;;;2.20;1.80;;;27.40;75.10;;;;;;5051510;28;20800;-65
2022/07/09 12:37:11;;;;;;;1.70;1.57;;;27.60;78.10;;;;;;5051259;28;20454;-66
2022/07/09 12:39:38;;;;;;;2.43;1.90;;;27.90;77.40;;;;;;5051359;28;20465;-67
2022/07/09 12:42:05;;;;;;;2.40;1.87;;;28.00;77.60;;;;;;5051440;28;20485;-67
2022/07/09 12:44:33;;;;;;;1.90;1.80;;;27.90;77.60;;;;;;5051497;28;20485;-65
2022/07/09 12:47:01;;;;;;;2.80;1.80;;;27.80;79.10;;;;;;5051719;28;20457;-65
2022/07/09 12:49:28;;;;;;;2.70;1.70;;;28.00;77.50;;;;;;5051383;28;20454;-66
2022/07/09 12:51:55;;;;;;;3.10;1.90;;;28.00;77.80;;;;;;5051416;28;20458;-65
2022/07/09 12:54:24;;;;;;;2.33;1.70;;;28.30;78.90;;;;;;5051332;28;20511;-64
2022/07/09 12:56:51;;;;;;;1.97;1.77;;;28.70;77.10;;;;;;5051407;28;20454;-65
2022/07/09 12:59:26;;;;;;;1.50;1.50;;;29.00;75.90;;;;;;5051587;28;20460;-65